Terminal Aerodrome Forecast
Issued by NWS

Home | Current Version | Previous Version | Text Only | Print | Product List | Glossary On
Versions: 1 2 3 4 5 6 7 8 9 10 11 12 13 14 15 16 17 18 19 20 21 22 23 24 25 26 27 28 29 30
000
FTUS41 KOKX 260800 AAA
TAFGON
TAF AMD
KGON 260830Z 2609/2706 01006KT P6SM SCT070 OVC100
     FM261100 01006KT P6SM SCT025 BKN100
     FM261300 03010KT 4SM -RA BKN015 OVC025
     FM261400 04017G24KT 4SM -RA OVC009
     FM261600 04017G24KT 2SM -RA OVC006
     FM261800 03024G35KT 1SM PLSNRA OVC004
      TEMPO 2620/2624 +RA
     FM270300 33018G25KT 6SM -RASN OVC030=

USA.gov is the U.S. government's official web portal to all federal, state and local government web resources and services.